sensor_id;sensor_type;location;lat;lon;timestamp;pressure;altitude;pressure_sealevel;temperature;humidity
77725;BME280;66892;53.236;6.550;2023-08-06T00:00:23;100762.53;;;12.99;100.00
77725;BME280;66892;53.236;6.550;2023-08-06T00:02:50;100758.09;;;12.99;100.00
77725;BME280;66892;53.236;6.550;2023-08-06T00:05:16;100756.22;;;13.06;100.00
77725;BME280;66892;53.236;6.550;2023-08-06T00:07:47;100752.69;;;13.04;100.00
77725;BME280;66892;53.236;6.550;2023-08-06T00:10:14;100739.47;;;13.02;100.00
77725;BME280;66892;53.236;6.550;2023-08-06T00:12:41;100748.22;;;13.07;100.00
77725;BME280;66892;53.236;6.550;2023-08-06T00:15:08;100749.97;;;13.13;100.00
77725;BME280;66892;53.236;6.550;2023-08-06T00:17:34;100741.19;;;13.09;100.00
77725;BME280;66892;53.236;6.550;2023-08-06T00:20:01;100728.84;;;13.02;100.00
77725;BME280;66892;53.236;6.550;2023-08-06T00:22:31;100731.53;;;13.01;100.00
77725;BME280;66892;53.236;6.550;2023-08-06T00:24:57;100732.41;;;13.03;100.00
77725;BME280;66892;53.236;6.550;2023-08-06T00:27:25;100721.78;;;13.03;100.00
77725;BME280;66892;53.236;6.550;2023-08-06T00:29:51;100737.66;;;13.06;100.00
77725;BME280;66892;53.236;6.550;2023-08-06T00:32:17;100724.44;;;13.01;100.00
77725;BME280;66892;53.236;6.550;2023-08-06T00:34:43;100719.13;;;13.03;100.00
77725;BME280;66892;53.236;6.550;2023-08-06T00:37:10;100721.72;;;13.06;100.00
77725;BME280;66892;53.236;6.550;2023-08-06T00:39:36;100731.47;;;13.04;100.00
77725;BME280;66892;53.236;6.550;2023-08-06T00:42:02;100725.25;;;13.06;100.00
77725;BME280;66892;53.236;6.550;2023-08-06T00:44:30;100723.59;;;12.99;100.00
77725;BME280;66892;53.236;6.550;2023-08-06T00:46:56;100721.72;;;13.04;100.00
77725;BME280;66892;53.236;6.550;2023-08-06T00:49:23;100728.78;;;13.08;100.00
77725;BME280;66892;53.236;6.550;2023-08-06T00:51:49;100721.72;;;13.09;100.00
77725;BME280;66892;53.236;6.550;2023-08-06T00:54:16;100729.69;;;13.09;100.00
77725;BME280;66892;53.236;6.550;2023-08-06T00:56:42;100712.88;;;13.04;100.00
77725;BME280;66892;53.236;6.550;2023-08-06T00:59:09;100726.97;;;13.10;100.00
77725;BME280;66892;53.236;6.550;2023-08-06T01:01:38;100720.81;;;13.07;100.00
77725;BME280;66892;53.236;6.550;2023-08-06T01:04:04;100724.34;;;13.07;100.00
77725;BME280;66892;53.236;6.550;2023-08-06T01:06:37;100712.06;;;13.00;100.00
77725;BME280;66892;53.236;6.550;2023-08-06T01:09:09;100720.78;;;13.10;100.00
77725;BME280;66892;53.236;6.550;2023-08-06T01:11:57;100717.25;;;13.11;100.00
77725;BME280;66892;53.236;6.550;2023-08-06T01:14:28;100714.69;;;13.02;100.00
77725;BME280;66892;53.236;6.550;2023-08-06T01:16:58;100714.72;;;13.00;100.00
77725;BME280;66892;53.236;6.550;2023-08-06T01:19:24;100724.34;;;13.07;100.00
77725;BME280;66892;53.236;6.550;2023-08-06T01:21:52;100718.25;;;13.02;100.00
77725;BME280;66892;53.236;6.550;2023-08-06T01:24:18;100723.47;;;13.07;100.00
77725;BME280;66892;53.236;6.550;2023-08-06T01:26:50;100721.69;;;13.07;100.00
77725;BME280;66892;53.236;6.550;2023-08-06T01:29:24;100721.66;;;13.10;100.00
77725;BME280;66892;53.236;6.550;2023-08-06T01:31:52;100712.88;;;13.04;100.00
77725;BME280;66892;53.236;6.550;2023-08-06T01:34:25;100719.03;;;13.07;100.00
77725;BME280;66892;53.236;6.550;2023-08-06T01:36:55;100716.34;;;13.10;100.00
77725;BME280;66892;53.236;6.550;2023-08-06T01:39:22;100709.28;;;13.08;100.00
77725;BME280;66892;53.236;6.550;2023-08-06T01:41:48;100720.78;;;13.10;100.00
77725;BME280;66892;53.236;6.550;2023-08-06T01:44:14;100711.97;;;13.09;100.00
77725;BME280;66892;53.236;6.550;2023-08-06T01:46:41;100716.34;;;13.12;100.00
77725;BME280;66892;53.236;6.550;2023-08-06T01:49:07;100703.97;;;13.12;100.00
77725;BME280;66892;53.236;6.550;2023-08-06T01:51:33;100705.69;;;13.13;100.00
77725;BME280;66892;53.236;6.550;2023-08-06T01:54:01;100707.44;;;13.16;100.00
77725;BME280;66892;53.236;6.550;2023-08-06T01:56:27;100710.00;;;13.20;100.00
77725;BME280;66892;53.236;6.550;2023-08-06T01:58:53;100709.19;;;13.17;100.00
77725;BME280;66892;53.236;6.550;2023-08-06T02:01:19;100693.25;;;13.17;100.00
77725;BME280;66892;53.236;6.550;2023-08-06T02:03:46;100693.25;;;13.17;100.00
77725;BME280;66892;53.236;6.550;2023-08-06T02:06:12;100703.81;;;13.22;100.00
77725;BME280;66892;53.236;6.550;2023-08-06T02:08:38;100696.72;;;13.20;100.00
77725;BME280;66892;53.236;6.550;2023-08-06T02:11:07;100689.66;;;13.21;100.00
77725;BME280;66892;53.236;6.550;2023-08-06T02:13:33;100688.81;;;13.19;100.00
77725;BME280;66892;53.236;6.550;2023-08-06T02:15:59;100688.81;;;13.17;100.00
77725;BME280;66892;53.236;6.550;2023-08-06T02:18:25;100698.53;;;13.18;100.00
77725;BME280;66892;53.236;6.550;2023-08-06T02:20:55;100694.13;;;13.17;100.00
77725;BME280;66892;53.236;6.550;2023-08-06T02:23:22;100692.28;;;13.23;100.00
77725;BME280;66892;53.236;6.550;2023-08-06T02:25:53;100693.19;;;13.22;100.00
77725;BME280;66892;53.236;6.550;2023-08-06T02:28:23;100693.13;;;13.25;100.00
77725;BME280;66892;53.236;6.550;2023-08-06T02:30:50;100680.84;;;13.17;100.00
77725;BME280;66892;53.236;6.550;2023-08-06T02:33:16;100689.59;;;13.24;100.00
77725;BME280;66892;53.236;6.550;2023-08-06T02:35:42;100679.88;;;13.23;100.00
77725;BME280;66892;53.236;6.550;2023-08-06T02:38:08;100677.19;;;13.25;100.00
77725;BME280;66892;53.236;6.550;2023-08-06T02:40:34;100668.34;;;13.24;100.00
77725;BME280;66892;53.236;6.550;2023-08-06T02:43:00;100669.25;;;13.23;100.00
77725;BME280;66892;53.236;6.550;2023-08-06T02:45:29;100666.56;;;13.25;100.00
77725;BME280;66892;53.236;6.550;2023-08-06T02:47:55;100662.09;;;13.27;100.00
77725;BME280;66892;53.236;6.550;2023-08-06T02:50:21;100655.13;;;13.21;100.00
77725;BME280;66892;53.236;6.550;2023-08-06T02:52:49;100648.94;;;13.20;100.00
77725;BME280;66892;53.236;6.550;2023-08-06T02:55:15;100662.06;;;13.30;100.00
77725;BME280;66892;53.236;6.550;2023-08-06T02:57:41;100651.44;;;13.30;100.00
77725;BME280;66892;53.236;6.550;2023-08-06T03:00:08;100651.44;;;13.30;100.00
77725;BME280;66892;53.236;6.550;2023-08-06T03:02:36;100659.41;;;13.30;100.00
77725;BME280;66892;53.236;6.550;2023-08-06T03:05:02;100647.16;;;13.23;100.00
77725;BME280;66892;53.236;6.550;2023-08-06T03:07:29;100657.59;;;13.32;100.00
77725;BME280;66892;53.236;6.550;2023-08-06T03:09:55;100643.53;;;13.27;100.00
77725;BME280;66892;53.236;6.550;2023-08-06T03:12:22;100653.19;;;13.31;100.00
77725;BME280;66892;53.236;6.550;2023-08-06T03:14:48;100643.53;;;13.27;100.00
77725;BME280;66892;53.236;6.550;2023-08-06T03:17:14;100652.41;;;13.26;100.00
77725;BME280;66892;53.236;6.550;2023-08-06T03:19:42;100641.78;;;13.26;100.00
77725;BME280;66892;53.236;6.550;2023-08-06T03:22:08;100639.03;;;13.30;100.00
77725;BME280;66892;53.236;6.550;2023-08-06T03:24:34;100640.84;;;13.28;100.00
77725;BME280;66892;53.236;6.550;2023-08-06T03:27:00;100630.19;;;13.30;100.00
77725;BME280;66892;53.236;6.550;2023-08-06T03:29:26;100627.53;;;13.30;100.00
77725;BME280;66892;53.236;6.550;2023-08-06T03:31:53;100618.78;;;13.23;100.00
77725;BME280;66892;53.236;6.550;2023-08-06T03:34:19;100629.53;;;13.17;100.00
77725;BME280;66892;53.236;6.550;2023-08-06T03:36:46;100633.06;;;13.17;100.00
77725;BME280;66892;53.236;6.550;2023-08-06T03:39:13;100635.75;;;13.16;100.00
77725;BME280;66892;53.236;6.550;2023-08-06T03:41:39;100633.13;;;13.14;100.00
77725;BME280;66892;53.236;6.550;2023-08-06T03:44:06;100631.44;;;13.07;100.00
77725;BME280;66892;53.236;6.550;2023-08-06T03:46:32;100636.72;;;13.07;100.00
77725;BME280;66892;53.236;6.550;2023-08-06T03:49:00;100627.13;;;13.00;100.00
77725;BME280;66892;53.236;6.550;2023-08-06T03:51:26;100626.31;;;12.97;100.00
77725;BME280;66892;53.236;6.550;2023-08-06T03:53:53;100634.13;;;13.04;100.00
77725;BME280;66892;53.236;6.550;2023-08-06T03:56:19;100640.25;;;13.11;100.00
77725;BME280;66892;53.236;6.550;2023-08-06T03:58:45;100632.19;;;13.17;100.00
77725;BME280;66892;53.236;6.550;2023-08-06T04:01:12;100620.72;;;13.13;100.00
77725;BME280;66892;53.236;6.550;2023-08-06T04:03:38;100626.81;;;13.20;100.00
77725;BME280;66892;53.236;6.550;2023-08-06T04:06:04;100618.91;;;13.18;100.00
77725;BME280;66892;53.236;6.550;2023-08-06T04:08:30;100632.06;;;13.23;100.00
77725;BME280;66892;53.236;6.550;2023-08-06T04:10:59;100622.44;;;13.19;100.00
77725;BME280;66892;53.236;6.550;2023-08-06T04:13:25;100631.19;;;13.24;100.00
77725;BME280;66892;53.236;6.550;2023-08-06T04:15:51;100635.59;;;13.25;100.00
77725;BME280;66892;53.236;6.550;2023-08-06T04:18:17;100632.00;;;13.28;100.00
77725;BME280;66892;53.236;6.550;2023-08-06T04:20:44;100632.00;;;13.28;100.00
77725;BME280;66892;53.236;6.550;2023-08-06T04:23:11;100627.59;;;13.27;100.00
77725;BME280;66892;53.236;6.550;2023-08-06T04:25:37;100632.00;;;13.29;100.00
77725;BME280;66892;53.236;6.550;2023-08-06T04:28:04;100639.16;;;13.24;100.00
77725;BME280;66892;53.236;6.550;2023-08-06T04:30:31;100636.53;;;13.23;100.00
77725;BME280;66892;53.236;6.550;2023-08-06T04:32:57;100642.63;;;13.29;100.00
77725;BME280;66892;53.236;6.550;2023-08-06T04:35:24;100639.97;;;13.28;100.00
77725;BME280;66892;53.236;6.550;2023-08-06T04:37:50;100632.94;;;13.25;100.00
77725;BME280;66892;53.236;6.550;2023-08-06T04:40:16;100642.56;;;13.31;100.00
77725;BME280;66892;53.236;6.550;2023-08-06T04:42:43;100634.59;;;13.31;100.00
77725;BME280;66892;53.236;6.550;2023-08-06T04:45:10;100635.44;;;13.34;100.00
77725;BME280;66892;53.236;6.550;2023-08-06T04:47:37;100634.53;;;13.34;100.00
77725;BME280;66892;53.236;6.550;2023-08-06T04:50:03;100641.53;;;13.39;100.00
77725;BME280;66892;53.236;6.550;2023-08-06T04:52:30;100635.31;;;13.40;100.00
77725;BME280;66892;53.236;6.550;2023-08-06T04:54:58;100631.94;;;13.32;100.00
77725;BME280;66892;53.236;6.550;2023-08-06T04:57:24;100641.69;;;13.30;100.00
77725;BME280;66892;53.236;6.550;2023-08-06T04:59:50;100644.44;;;13.24;100.00
77725;BME280;66892;53.236;6.550;2023-08-06T05:02:18;100643.66;;;13.19;100.00
77725;BME280;66892;53.236;6.550;2023-08-06T05:04:44;100641.91;;;13.18;100.00
77725;BME280;66892;53.236;6.550;2023-08-06T05:07:10;100640.19;;;13.14;100.00
77725;BME280;66892;53.236;6.550;2023-08-06T05:09:36;100633.19;;;13.10;100.00
77725;BME280;66892;53.236;6.550;2023-08-06T05:12:04;100644.75;;;13.06;100.00
77725;BME280;66892;53.236;6.550;2023-08-06T05:14:30;100640.38;;;13.00;100.00
77725;BME280;66892;53.236;6.550;2023-08-06T05:16:56;100642.25;;;12.95;100.00
77725;BME280;66892;53.236;6.550;2023-08-06T05:19:24;100633.41;;;12.96;100.00
77725;BME280;66892;53.236;6.550;2023-08-06T05:21:50;100631.75;;;12.89;100.00
77725;BME280;66892;53.236;6.550;2023-08-06T05:24:16;100623.78;;;12.89;100.00
77725;BME280;66892;53.236;6.550;2023-08-06T05:26:42;100630.84;;;12.90;100.00
77725;BME280;66892;53.236;6.550;2023-08-06T05:29:12;100633.41;;;12.96;100.00
77725;BME280;66892;53.236;6.550;2023-08-06T05:31:38;100645.56;;;13.08;100.00
77725;BME280;66892;53.236;6.550;2023-08-06T05:34:04;100647.16;;;13.23;100.00
77725;BME280;66892;53.236;6.550;2023-08-06T05:36:32;100648.75;;;13.31;100.00
77725;BME280;66892;53.236;6.550;2023-08-06T05:38:58;100641.56;;;13.38;100.00
77725;BME280;66892;53.236;6.550;2023-08-06T05:41:24;100658.03;;;13.58;100.00
77725;BME280;66892;53.236;6.550;2023-08-06T05:43:50;100661.22;;;13.77;100.00
77725;BME280;66892;53.236;6.550;2023-08-06T05:46:17;100664.19;;;14.86;100.00
77725;BME280;66892;53.236;6.550;2023-08-06T05:48:43;100658.34;;;15.42;100.00
77725;BME280;66892;53.236;6.550;2023-08-06T05:51:09;100648.97;;;15.26;100.00
77725;BME280;66892;53.236;6.550;2023-08-06T05:53:39;100663.28;;;15.22;100.00
77725;BME280;66892;53.236;6.550;2023-08-06T05:56:06;100667.06;;;15.13;100.00
77725;BME280;66892;53.236;6.550;2023-08-06T05:58:32;100660.13;;;15.06;100.00
77725;BME280;66892;53.236;6.550;2023-08-06T06:00:58;100666.50;;;15.01;100.00
77725;BME280;66892;53.236;6.550;2023-08-06T06:03:24;100671.13;;;14.93;100.00
77725;BME280;66892;53.236;6.550;2023-08-06T06:05:50;100678.25;;;14.92;100.00
77725;BME280;66892;53.236;6.550;2023-08-06T06:08:16;100679.16;;;14.91;100.00
77725;BME280;66892;53.236;6.550;2023-08-06T06:10:44;100674.78;;;14.89;100.00
77725;BME280;66892;53.236;6.550;2023-08-06T06:13:10;100665.75;;;14.96;100.00
77725;BME280;66892;53.236;6.550;2023-08-06T06:15:36;100674.16;;;15.14;100.00
77725;BME280;66892;53.236;6.550;2023-08-06T06:18:04;100678.41;;;15.21;100.00
77725;BME280;66892;53.236;6.550;2023-08-06T06:20:31;100680.94;;;15.26;100.00
77725;BME280;66892;53.236;6.550;2023-08-06T06:22:58;100681.72;;;15.31;100.00
77725;BME280;66892;53.236;6.550;2023-08-06T06:25:24;100674.53;;;15.35;100.00
77725;BME280;66892;53.236;6.550;2023-08-06T06:27:51;100672.63;;;15.38;100.00
77725;BME280;66892;53.236;6.550;2023-08-06T06:30:17;100678.66;;;15.46;100.00
77725;BME280;66892;53.236;6.550;2023-08-06T06:32:43;100676.59;;;15.59;100.00
77725;BME280;66892;53.236;6.550;2023-08-06T06:35:10;100681.66;;;15.69;100.00
77725;BME280;66892;53.236;6.550;2023-08-06T06:37:36;100685.66;;;15.86;100.00
77725;BME280;66892;53.236;6.550;2023-08-06T06:40:02;100688.16;;;15.90;100.00
77725;BME280;66892;53.236;6.550;2023-08-06T06:42:29;100690.63;;;15.98;100.00
77725;BME280;66892;53.236;6.550;2023-08-06T06:44:57;100681.66;;;16.02;99.61
77725;BME280;66892;53.236;6.550;2023-08-06T06:47:24;100676.41;;;15.97;98.88
77725;BME280;66892;53.236;6.550;2023-08-06T06:49:51;100693.00;;;16.08;98.17
77725;BME280;66892;53.236;6.550;2023-08-06T06:52:17;100685.56;;;16.19;97.77
77725;BME280;66892;53.236;6.550;2023-08-06T06:54:43;100692.81;;;16.45;97.00
77725;BME280;66892;53.236;6.550;2023-08-06T06:57:09;100690.78;;;16.55;95.44
77725;BME280;66892;53.236;6.550;2023-08-06T06:59:35;100686.41;;;16.81;95.50
77725;BME280;66892;53.236;6.550;2023-08-06T07:02:03;100689.69;;;16.90;94.69
77725;BME280;66892;53.236;6.550;2023-08-06T07:04:30;100686.13;;;16.89;93.75
77725;BME280;66892;53.236;6.550;2023-08-06T07:06:56;100688.63;;;16.95;92.07
77725;BME280;66892;53.236;6.550;2023-08-06T07:09:22;100690.13;;;17.04;92.35
77725;BME280;66892;53.236;6.550;2023-08-06T07:11:48;100695.53;;;17.28;90.36
77725;BME280;66892;53.236;6.550;2023-08-06T07:14:14;100689.38;;;17.79;87.93
77725;BME280;66892;53.236;6.550;2023-08-06T07:16:41;100694.56;;;17.83;88.01
77725;BME280;66892;53.236;6.550;2023-08-06T07:19:08;100692.34;;;17.71;86.57
77725;BME280;66892;53.236;6.550;2023-08-06T07:21:34;100696.91;;;17.68;87.43
77725;BME280;66892;53.236;6.550;2023-08-06T07:24:00;100703.09;;;17.95;87.83
77725;BME280;66892;53.236;6.550;2023-08-06T07:26:26;100697.72;;;18.19;85.06
77725;BME280;66892;53.236;6.550;2023-08-06T07:28:53;100696.28;;;18.34;83.77
77725;BME280;66892;53.236;6.550;2023-08-06T07:31:19;100688.91;;;18.87;82.42
77725;BME280;66892;53.236;6.550;2023-08-06T07:33:45;100690.84;;;19.49;80.24
77725;BME280;66892;53.236;6.550;2023-08-06T07:36:14;100693.16;;;20.76;75.48
77725;BME280;66892;53.236;6.550;2023-08-06T07:38:40;100684.78;;;21.72;69.27
77725;BME280;66892;53.236;6.550;2023-08-06T07:41:06;100685.50;;;23.07;62.53
77725;BME280;66892;53.236;6.550;2023-08-06T07:43:33;100684.66;;;24.11;58.70
77725;BME280;66892;53.236;6.550;2023-08-06T07:45:59;100688.84;;;25.14;55.92
77725;BME280;66892;53.236;6.550;2023-08-06T07:48:26;100682.44;;;25.56;53.84
77725;BME280;66892;53.236;6.550;2023-08-06T07:50:53;100689.47;;;25.86;52.18
77725;BME280;66892;53.236;6.550;2023-08-06T07:53:21;100693.22;;;26.48;50.75
77725;BME280;66892;53.236;6.550;2023-08-06T07:55:50;100690.91;;;26.92;50.45
77725;BME280;66892;53.236;6.550;2023-08-06T07:58:17;100696.22;;;27.54;47.26
77725;BME280;66892;53.236;6.550;2023-08-06T08:00:43;100692.06;;;27.61;45.93
77725;BME280;66892;53.236;6.550;2023-08-06T08:03:11;100686.34;;;27.29;47.98
77725;BME280;66892;53.236;6.550;2023-08-06T08:05:38;100673.31;;;27.21;47.24
77725;BME280;66892;53.236;6.550;2023-08-06T08:08:04;100687.38;;;26.41;48.65
77725;BME280;66892;53.236;6.550;2023-08-06T08:10:32;100673.41;;;25.70;49.66
77725;BME280;66892;53.236;6.550;2023-08-06T08:12:59;100690.56;;;24.60;53.79
77725;BME280;66892;53.236;6.550;2023-08-06T08:15:25;100685.06;;;23.60;57.65
77725;BME280;66892;53.236;6.550;2023-08-06T08:17:54;100688.09;;;23.24;59.15
77725;BME280;66892;53.236;6.550;2023-08-06T08:20:20;100681.88;;;23.38;58.68
77725;BME280;66892;53.236;6.550;2023-08-06T08:22:47;100683.50;;;23.86;57.57
77725;BME280;66892;53.236;6.550;2023-08-06T08:25:13;100681.13;;;24.39;55.88
77725;BME280;66892;53.236;6.550;2023-08-06T08:27:41;100677.69;;;25.06;54.08
77725;BME280;66892;53.236;6.550;2023-08-06T08:30:08;100678.22;;;24.85;54.06
77725;BME280;66892;53.236;6.550;2023-08-06T08:32:34;100688.81;;;24.59;54.84
77725;BME280;66892;53.236;6.550;2023-08-06T08:35:00;100669.25;;;24.84;55.25
77725;BME280;66892;53.236;6.550;2023-08-06T08:37:26;100681.41;;;25.18;54.21
77725;BME280;66892;53.236;6.550;2023-08-06T08:39:52;100668.69;;;26.11;51.68
77725;BME280;66892;53.236;6.550;2023-08-06T08:42:19;100682.78;;;27.16;49.14
77725;BME280;66892;53.236;6.550;2023-08-06T08:44:47;100674.66;;;27.63;47.99
77725;BME280;66892;53.236;6.550;2023-08-06T08:47:14;100668.03;;;27.67;46.49
77725;BME280;66892;53.236;6.550;2023-08-06T08:49:42;100668.47;;;27.38;46.79
77725;BME280;66892;53.236;6.550;2023-08-06T08:52:10;100678.38;;;27.02;48.73
77725;BME280;66892;53.236;6.550;2023-08-06T08:54:38;100670.06;;;26.80;48.21
77725;BME280;66892;53.236;6.550;2023-08-06T08:57:05;100678.53;;;26.76;48.26
77725;BME280;66892;53.236;6.550;2023-08-06T08:59:33;100679.56;;;26.24;49.08
77725;BME280;66892;53.236;6.550;2023-08-06T09:02:01;100675.06;;;26.10;47.68
77725;BME280;66892;53.236;6.550;2023-08-06T09:04:29;100670.75;;;26.20;50.14
77725;BME280;66892;53.236;6.550;2023-08-06T09:06:58;100678.44;;;26.14;48.82
77725;BME280;66892;53.236;6.550;2023-08-06T09:09:26;100679.50;;;25.99;49.02
77725;BME280;66892;53.236;6.550;2023-08-06T09:11:55;100683.97;;;26.00;47.85
77725;BME280;66892;53.236;6.550;2023-08-06T09:14:26;100683.19;;;26.10;48.67
77725;BME280;66892;53.236;6.550;2023-08-06T09:16:52;100683.31;;;25.96;48.50
77725;BME280;66892;53.236;6.550;2023-08-06T09:19:20;100697.59;;;25.98;49.68
77725;BME280;66892;53.236;6.550;2023-08-06T09:21:46;100694.59;;;25.63;48.62
77725;BME280;66892;53.236;6.550;2023-08-06T09:24:15;100693.41;;;25.55;50.08
77725;BME280;66892;53.236;6.550;2023-08-06T09:26:43;100696.69;;;25.19;49.06
77725;BME280;66892;53.236;6.550;2023-08-06T09:29:10;100700.63;;;25.28;49.63
77725;BME280;66892;53.236;6.550;2023-08-06T09:31:42;100702.28;;;25.57;46.90
77725;BME280;66892;53.236;6.550;2023-08-06T09:34:11;100699.84;;;26.31;46.25
77725;BME280;66892;53.236;6.550;2023-08-06T09:36:41;100696.63;;;26.75;45.32
77725;BME280;66892;53.236;6.550;2023-08-06T09:39:13;100708.16;;;27.28;43.66
77725;BME280;66892;53.236;6.550;2023-08-06T09:45:09;100695.44;;;27.28;44.45
77725;BME280;66892;53.236;6.550;2023-08-06T09:47:36;100704.19;;;27.08;42.05
77725;BME280;66892;53.236;6.550;2023-08-06T09:50:03;100701.22;;;26.75;43.33
77725;BME280;66892;53.236;6.550;2023-08-06T09:52:30;100701.53;;;26.95;44.67
77725;BME280;66892;53.236;6.550;2023-08-06T09:54:57;100703.47;;;27.06;43.37
77725;BME280;66892;53.236;6.550;2023-08-06T09:57:25;100712.50;;;26.94;43.60
77725;BME280;66892;53.236;6.550;2023-08-06T09:59:52;100704.28;;;26.83;42.44
77725;BME280;66892;53.236;6.550;2023-08-06T10:02:19;100719.25;;;26.38;45.76
77725;BME280;66892;53.236;6.550;2023-08-06T10:04:48;100713.66;;;26.01;46.00
77725;BME280;66892;53.236;6.550;2023-08-06T10:07:14;100709.25;;;25.61;46.88
77725;BME280;66892;53.236;6.550;2023-08-06T10:09:41;100712.16;;;25.58;47.31
77725;BME280;66892;53.236;6.550;2023-08-06T10:12:08;100696.34;;;25.64;46.26
77725;BME280;66892;53.236;6.550;2023-08-06T10:14:37;100709.59;;;25.28;49.02
77725;BME280;66892;53.236;6.550;2023-08-06T10:17:04;100708.59;;;25.16;49.18
77725;BME280;66892;53.236;6.550;2023-08-06T10:19:31;100706.81;;;25.30;48.19
77725;BME280;66892;53.236;6.550;2023-08-06T10:22:13;100712.66;;;25.50;47.96
77725;BME280;66892;53.236;6.550;2023-08-06T10:24:48;100709.03;;;25.64;46.45
77725;BME280;66892;53.236;6.550;2023-08-06T10:27:20;100711.84;;;25.75;47.37
77725;BME280;66892;53.236;6.550;2023-08-06T10:29:46;100713.06;;;25.71;47.41
77725;BME280;66892;53.236;6.550;2023-08-06T10:32:13;100706.91;;;25.28;48.22
77725;BME280;66892;53.236;6.550;2023-08-06T10:34:56;100720.09;;;25.06;47.57
77725;BME280;66892;53.236;6.550;2023-08-06T10:37:23;100715.97;;;24.72;49.48
77725;BME280;66892;53.236;6.550;2023-08-06T10:39:52;100707.88;;;24.86;48.94
77725;BME280;66892;53.236;6.550;2023-08-06T10:42:22;100708.41;;;25.05;48.20
77725;BME280;66892;53.236;6.550;2023-08-06T10:45:17;100709.72;;;25.27;48.47
77725;BME280;66892;53.236;6.550;2023-08-06T10:47:44;100713.94;;;25.31;45.80
77725;BME280;66892;53.236;6.550;2023-08-06T10:50:12;100715.16;;;25.27;47.04
77725;BME280;66892;53.236;6.550;2023-08-06T10:52:43;100712.16;;;25.58;47.07
77725;BME280;66892;53.236;6.550;2023-08-06T10:55:11;100709.97;;;25.90;46.65
77725;BME280;66892;53.236;6.550;2023-08-06T10:57:37;100714.69;;;26.38;43.94
77725;BME280;66892;53.236;6.550;2023-08-06T11:00:04;100708.31;;;26.52;43.54
77725;BME280;66892;53.236;6.550;2023-08-06T11:02:33;100707.97;;;26.18;44.91
77725;BME280;66892;53.236;6.550;2023-08-06T11:05:05;100707.38;;;27.02;42.91
77725;BME280;66892;53.236;6.550;2023-08-06T11:07:31;100707.28;;;27.27;40.96
77725;BME280;66892;53.236;6.550;2023-08-06T11:10:01;100701.84;;;27.03;41.80
77725;BME280;66892;53.236;6.550;2023-08-06T11:12:29;100702.28;;;26.85;44.43
77725;BME280;66892;53.236;6.550;2023-08-06T11:14:55;100701.66;;;26.56;45.43
77725;BME280;66892;53.236;6.550;2023-08-06T11:17:22;100695.28;;;26.32;44.86
77725;BME280;66892;53.236;6.550;2023-08-06T11:19:48;100705.47;;;26.28;45.62
77725;BME280;66892;53.236;6.550;2023-08-06T11:22:14;100698.63;;;26.10;44.31
77725;BME280;66892;53.236;6.550;2023-08-06T11:24:40;100693.63;;;26.67;43.86
77725;BME280;66892;53.236;6.550;2023-08-06T11:27:11;100695.63;;;27.01;42.96
77725;BME280;66892;53.236;6.550;2023-08-06T11:29:40;100693.72;;;26.91;44.02
77725;BME280;66892;53.236;6.550;2023-08-06T11:32:06;100692.31;;;26.85;44.43
77725;BME280;66892;53.236;6.550;2023-08-06T11:34:33;100698.09;;;26.81;43.95
77725;BME280;66892;53.236;6.550;2023-08-06T11:36:59;100706.56;;;26.51;44.19
77725;BME280;66892;53.236;6.550;2023-08-06T11:39:25;100701.31;;;25.97;44.49
77725;BME280;66892;53.236;6.550;2023-08-06T11:41:52;100700.75;;;25.53;44.41
77725;BME280;66892;53.236;6.550;2023-08-06T11:44:19;100697.38;;;25.08;43.75
77725;BME280;66892;53.236;6.550;2023-08-06T11:46:53;100699.06;;;24.97;46.12
77725;BME280;66892;53.236;6.550;2023-08-06T11:49:37;100717.03;;;24.70;45.89
77725;BME280;66892;53.236;6.550;2023-08-06T11:52:09;100693.94;;;24.64;46.22
77725;BME280;66892;53.236;6.550;2023-08-06T11:54:35;100709.22;;;24.65;47.15
77725;BME280;66892;53.236;6.550;2023-08-06T11:57:03;100710.19;;;24.78;47.64
77725;BME280;66892;53.236;6.550;2023-08-06T11:59:31;100712.47;;;24.98;47.84
77725;BME280;66892;53.236;6.550;2023-08-06T12:02:00;100713.59;;;24.82;45.60
77725;BME280;66892;53.236;6.550;2023-08-06T12:04:26;100702.72;;;24.53;48.09
77725;BME280;66892;53.236;6.550;2023-08-06T12:06:52;100715.97;;;24.44;49.04
77725;BME280;66892;53.236;6.550;2023-08-06T12:09:19;100707.47;;;24.50;47.63
77725;BME280;66892;53.236;6.550;2023-08-06T12:11:46;100714.25;;;24.43;47.66
77725;BME280;66892;53.236;6.550;2023-08-06T12:14:12;100705.75;;;24.21;49.94
77725;BME280;66892;53.236;6.550;2023-08-06T12:16:39;100715.84;;;24.17;49.84
77725;BME280;66892;53.236;6.550;2023-08-06T12:19:06;100712.22;;;24.02;50.16
77725;BME280;66892;53.236;6.550;2023-08-06T12:21:34;100712.50;;;23.98;52.07
77725;BME280;66892;53.236;6.550;2023-08-06T12:24:00;100714.28;;;23.83;51.05
77725;BME280;66892;53.236;6.550;2023-08-06T12:26:30;100698.81;;;23.71;50.90
77725;BME280;66892;53.236;6.550;2023-08-06T12:28:56;100724.81;;;23.88;50.00
77725;BME280;66892;53.236;6.550;2023-08-06T12:31:23;100720.19;;;23.60;51.07
77725;BME280;66892;53.236;6.550;2023-08-06T12:33:49;100707.00;;;23.40;51.01
77725;BME280;66892;53.236;6.550;2023-08-06T12:36:17;100710.63;;;23.39;52.63
77725;BME280;66892;53.236;6.550;2023-08-06T12:38:43;100711.22;;;23.28;51.94
77725;BME280;66892;53.236;6.550;2023-08-06T12:41:10;100719.25;;;22.98;51.79
77725;BME280;66892;53.236;6.550;2023-08-06T12:43:36;100722.22;;;23.09;53.08
77725;BME280;66892;53.236;6.550;2023-08-06T12:46:02;100719.44;;;23.27;53.21
77725;BME280;66892;53.236;6.550;2023-08-06T12:48:29;100717.16;;;23.19;53.74